createdAt,value
2022-08-22T00:01:12.238Z,16.75
2022-08-22T00:02:43.553Z,10.10
2022-08-22T00:02:44.828Z,7.10
2022-08-22T00:03:03.228Z,11.38
2022-08-22T00:04:04.770Z,16.38
2022-08-22T00:07:03.091Z,17.92
2022-08-22T00:09:45.557Z,15.75
2022-08-22T00:12:24.357Z,16.17
2022-08-22T00:14:58.925Z,13.10
2022-08-22T00:18:05.582Z,16.98
2022-08-22T00:20:38.405Z,17.60
2022-08-22T00:23:15.968Z,16.05
2022-08-22T00:26:09.281Z,14.93
2022-08-22T00:28:48.414Z,15.85
2022-08-22T00:31:15.717Z,14.50
2022-08-22T00:33:48.833Z,16.85
2022-08-22T00:36:30.319Z,17.85
2022-08-22T00:39:26.790Z,16.08
2022-08-22T00:42:15.329Z,16.13
2022-08-22T00:45:23.172Z,14.10
2022-08-22T00:48:28.891Z,15.77
2022-08-22T00:51:34.817Z,20.67
2022-08-22T00:54:06.936Z,17.33
2022-08-22T00:57:26.045Z,21.40
2022-08-22T01:00:20.834Z,22.40
2022-08-22T01:02:56.543Z,19.05
2022-08-22T01:05:41.298Z,20.45
2022-08-22T01:08:15.497Z,18.50
2022-08-22T01:11:16.209Z,18.10
2022-08-22T01:13:55.926Z,16.83
2022-08-22T01:19:23.389Z,21.75
2022-08-22T01:22:18.933Z,20.37
2022-08-22T01:25:26.097Z,16.35
2022-08-22T01:28:17.653Z,21.35
2022-08-22T01:31:21.925Z,17.30
2022-08-22T01:34:12.915Z,21.13
2022-08-22T01:36:56.118Z,18.05
2022-08-22T01:39:41.572Z,16.95
2022-08-22T01:42:42.878Z,20.20
2022-08-22T01:45:33.812Z,18.55
2022-08-22T01:48:24.292Z,18.15
2022-08-22T01:50:56.374Z,14.32
2022-08-22T01:53:43.896Z,16.35
2022-08-22T01:56:16.783Z,15.60
2022-08-22T01:59:10.901Z,11.93
2022-08-22T02:02:22.355Z,13.35
2022-08-22T02:05:01.293Z,13.60
2022-08-22T02:07:38.969Z,9.20
2022-08-22T02:10:16.318Z,9.88
2022-08-22T02:13:13.080Z,10.48
2022-08-22T02:15:43.923Z,11.48
2022-08-22T02:18:20.863Z,12.18
2022-08-22T02:20:47.557Z,14.93
2022-08-22T02:23:55.473Z,10.63
2022-08-22T02:26:50.152Z,9.90
2022-08-22T02:29:34.230Z,16.33
2022-08-22T02:32:04.602Z,12.70
2022-08-22T02:34:53.513Z,11.07
2022-08-22T02:37:32.092Z,13.93
2022-08-22T02:40:11.709Z,12.05
2022-08-22T02:43:05.547Z,14.07
2022-08-22T02:45:40.192Z,18.27
2022-08-22T02:48:27.685Z,16.30
2022-08-22T02:51:17.624Z,13.38
2022-08-22T02:56:54.473Z,14.93
2022-08-22T02:59:27.415Z,15.32
2022-08-22T03:01:55.666Z,18.95
2022-08-22T03:04:31.283Z,17.98
2022-08-22T03:07:11.551Z,14.35
2022-08-22T03:09:59.874Z,13.85
2022-08-22T03:12:41.819Z,13.57
2022-08-22T03:15:26.975Z,18.15
2022-08-22T03:18:06.317Z,14.48
2022-08-22T03:20:59.264Z,12.93
2022-08-22T03:23:56.586Z,15.27
2022-08-22T03:26:30.941Z,12.73
2022-08-22T03:29:06.019Z,15.57
2022-08-22T03:31:33.328Z,13.75
2022-08-22T03:34:23.013Z,14.55
2022-08-22T03:37:31.485Z,14.05
2022-08-22T03:40:04.736Z,13.18
2022-08-22T03:42:43.391Z,12.30
2022-08-22T03:45:19.006Z,11.88
2022-08-22T03:48:03.807Z,12.85
2022-08-22T03:50:30.545Z,13.82
2022-08-22T03:53:22.213Z,14.43
2022-08-22T03:56:34.944Z,17.77
2022-08-22T03:59:17.830Z,18.17
2022-08-22T04:01:50.574Z,17.40
2022-08-22T04:04:42.335Z,19.85
2022-08-22T04:07:40.282Z,13.63
2022-08-22T04:10:34.124Z,15.88
2022-08-22T04:13:24.694Z,18.27
2022-08-22T04:16:10.796Z,16.05
2022-08-22T04:19:05.824Z,14.05
2022-08-22T04:21:40.725Z,18.13
2022-08-22T04:24:24.264Z,15.40
2022-08-22T04:27:05.436Z,14.23
2022-08-22T04:29:35.392Z,14.60
2022-08-22T04:32:14.569Z,14.57
2022-08-22T04:35:07.002Z,13.77
2022-08-22T04:37:52.524Z,16.52
2022-08-22T04:40:43.590Z,15.27
2022-08-22T04:43:37.144Z,16.58
2022-08-22T04:46:14.900Z,14.32
2022-08-22T04:48:50.569Z,17.55
2022-08-22T04:51:25.041Z,14.30
2022-08-22T04:54:24.082Z,20.83
2022-08-22T04:57:35.798Z,16.90
2022-08-22T05:00:08.487Z,15.80
2022-08-22T05:02:40.438Z,15.70
2022-08-22T05:05:20.217Z,14.50
2022-08-22T05:10:42.473Z,14.35
2022-08-22T05:13:16.420Z,16.83
2022-08-22T05:15:48.782Z,19.20
2022-08-22T05:18:29.646Z,18.33
2022-08-22T05:21:01.149Z,17.08
2022-08-22T05:23:43.421Z,13.35
2022-08-22T05:26:13.522Z,15.20
2022-08-22T05:28:53.099Z,14.02
2022-08-22T05:31:43.752Z,14.55
2022-08-22T05:34:19.573Z,18.42
2022-08-22T05:37:13.600Z,15.23
2022-08-22T05:39:51.426Z,15.27
2022-08-22T05:42:30.590Z,15.75
2022-08-22T05:45:03.893Z,14.18
2022-08-22T05:47:36.299Z,16.55
2022-08-22T05:50:15.898Z,16.90
2022-08-22T05:52:51.384Z,16.52
2022-08-22T05:55:37.474Z,14.98
2022-08-22T05:58:08.574Z,12.18
2022-08-22T06:00:42.243Z,13.95
2022-08-22T06:03:17.973Z,12.52
2022-08-22T06:05:51.473Z,11.18
2022-08-22T06:08:23.687Z,11.57
2022-08-22T06:10:57.896Z,10.80
2022-08-22T06:13:59.009Z,14.32
2022-08-22T06:17:04.249Z,11.95
2022-08-22T06:19:43.075Z,12.85
2022-08-22T06:22:12.246Z,13.48
2022-08-22T06:24:46.981Z,14.02
2022-08-22T06:27:17.080Z,13.48
2022-08-22T06:32:58.979Z,15.90
2022-08-22T06:36:02.908Z,17.98
2022-08-22T06:38:33.934Z,14.13
2022-08-22T06:41:06.971Z,19.05
2022-08-22T06:43:40.150Z,16.65
2022-08-22T06:46:10.184Z,16.25
2022-08-22T06:48:38.122Z,15.13
2022-08-22T06:51:08.914Z,15.93
2022-08-22T06:53:50.703Z,14.73
2022-08-22T06:56:36.997Z,13.93
2022-08-22T06:59:16.733Z,16.73
2022-08-22T07:01:48.622Z,14.73
2022-08-22T07:04:24.513Z,17.73
2022-08-22T07:06:51.795Z,17.17
2022-08-22T07:09:31.403Z,18.40
2022-08-22T07:14:40.061Z,14.93
2022-08-22T07:17:09.706Z,14.80
2022-08-22T07:22:22.082Z,13.20
2022-08-22T07:25:00.287Z,13.43
2022-08-22T07:27:56.035Z,12.75
2022-08-22T07:30:27.978Z,13.98
2022-08-22T07:33:20.977Z,11.75
2022-08-22T07:35:59.576Z,15.88
2022-08-22T07:38:43.287Z,11.13
2022-08-22T07:41:23.101Z,11.82
2022-08-22T07:46:26.099Z,10.43
2022-08-22T07:49:14.553Z,12.25
2022-08-22T07:51:57.277Z,10.95
2022-08-22T07:54:47.560Z,9.63
2022-08-22T07:57:17.133Z,8.65
2022-08-22T07:59:50.970Z,9.82
2022-08-22T08:02:20.270Z,7.55
2022-08-22T08:04:51.223Z,8.52
2022-08-22T08:07:25.270Z,7.60
2022-08-22T08:10:14.680Z,11.93
2022-08-22T08:12:57.965Z,7.38
2022-08-22T08:15:35.903Z,8.57
2022-08-22T08:18:11.426Z,7.38
2022-08-22T08:20:39.599Z,8.75
2022-08-22T08:23:26.112Z,7.88
2022-08-22T08:26:12.168Z,9.38
2022-08-22T08:29:07.196Z,7.43
2022-08-22T08:32:06.584Z,8.35
2022-08-22T08:34:34.729Z,10.80
2022-08-22T08:37:52.471Z,10.93
2022-08-22T08:40:55.794Z,9.25
2022-08-22T08:43:46.705Z,11.45
2022-08-22T08:46:29.548Z,10.43
2022-08-22T08:49:21.016Z,11.57
2022-08-22T08:51:57.288Z,12.18
2022-08-22T08:54:55.885Z,9.25
2022-08-22T08:57:44.040Z,10.18
2022-08-22T09:00:50.646Z,12.38
2022-08-22T09:03:51.512Z,10.02
2022-08-22T09:06:38.610Z,14.95
2022-08-22T09:09:33.102Z,9.18
2022-08-22T09:12:33.911Z,9.82
2022-08-22T09:15:30.466Z,11.82
2022-08-22T09:18:27.052Z,9.27
2022-08-22T09:24:00.777Z,9.45
2022-08-22T09:26:53.384Z,11.52
2022-08-22T09:29:34.169Z,8.88
2022-08-22T09:32:19.152Z,9.70
2022-08-22T09:35:04.018Z,9.82
2022-08-22T09:37:42.371Z,8.30
2022-08-22T09:40:29.299Z,9.77
2022-08-22T09:43:22.752Z,10.25
2022-08-22T09:46:04.079Z,8.75
2022-08-22T09:48:47.927Z,10.00
2022-08-22T09:51:39.140Z,9.77
2022-08-22T09:54:23.331Z,10.07
2022-08-22T09:57:16.152Z,7.97
2022-08-22T10:00:13.724Z,10.50
2022-08-22T10:03:06.762Z,9.40
2022-08-22T10:05:55.222Z,10.30
2022-08-22T10:08:46.226Z,10.23
2022-08-22T10:11:42.361Z,10.55
2022-08-22T10:14:22.312Z,10.48
2022-08-22T10:16:58.681Z,11.25
2022-08-22T10:19:50.248Z,10.95
2022-08-22T10:22:35.539Z,8.88
2022-08-22T10:25:10.314Z,9.98
2022-08-22T10:27:40.224Z,16.13
2022-08-22T10:30:13.398Z,11.95
2022-08-22T10:32:58.649Z,8.85
2022-08-22T10:35:34.384Z,8.95
2022-08-22T10:38:44.019Z,8.20
2022-08-22T10:42:03.023Z,8.63
2022-08-22T10:44:43.917Z,6.60
2022-08-22T10:47:21.128Z,6.30
2022-08-22T10:49:58.257Z,9.30
2022-08-22T10:53:13.715Z,7.05
2022-08-22T10:55:56.113Z,6.50
2022-08-22T10:58:31.547Z,7.25
2022-08-22T11:01:37.998Z,8.68
2022-08-22T11:04:28.232Z,8.07
2022-08-22T11:07:37.242Z,8.20
2022-08-22T11:10:38.718Z,9.05
2022-08-22T11:13:13.110Z,8.38
2022-08-22T11:16:10.929Z,6.38
2022-08-22T11:19:28.512Z,5.78
2022-08-22T11:22:25.600Z,5.30
2022-08-22T11:25:02.427Z,4.88
2022-08-22T11:27:46.377Z,3.75
2022-08-22T11:30:20.184Z,5.10
2022-08-22T11:33:00.179Z,6.03
2022-08-22T11:35:52.055Z,5.47
2022-08-22T11:38:50.883Z,5.45
2022-08-22T11:41:36.675Z,4.03
2022-08-22T11:44:12.155Z,4.03
2022-08-22T11:46:43.394Z,2.85
2022-08-22T11:49:32.670Z,2.78
2022-08-22T11:54:37.381Z,3.03
2022-08-22T11:57:12.315Z,3.15
2022-08-22T12:00:02.595Z,3.60
2022-08-22T12:02:37.117Z,2.35
2022-08-22T12:05:20.025Z,2.88
2022-08-22T12:08:03.808Z,3.08
2022-08-22T12:10:36.154Z,3.35
2022-08-22T12:13:17.813Z,3.88
2022-08-22T12:16:03.436Z,2.90
2022-08-22T12:19:15.371Z,3.13
2022-08-22T12:22:11.264Z,3.05
2022-08-22T12:24:53.053Z,3.70
2022-08-22T12:27:29.828Z,3.65
2022-08-22T12:30:32.064Z,5.18
2022-08-22T12:33:36.440Z,3.35
2022-08-22T12:36:54.050Z,3.45
2022-08-22T12:39:29.770Z,4.85
2022-08-22T12:42:34.007Z,2.85
2022-08-22T12:45:23.357Z,3.13
2022-08-22T12:48:12.155Z,3.15
2022-08-22T12:50:38.840Z,3.67
2022-08-22T12:53:20.350Z,3.67
2022-08-22T12:56:05.227Z,3.65
2022-08-22T12:59:03.439Z,4.85
2022-08-22T13:01:40.159Z,2.28
2022-08-22T13:04:33.513Z,3.03
2022-08-22T13:07:19.499Z,2.67
2022-08-22T13:09:55.634Z,4.25
2022-08-22T13:12:33.444Z,4.55
2022-08-22T13:15:22.159Z,4.30
2022-08-22T13:17:53.684Z,2.22
2022-08-22T13:20:44.083Z,3.10
2022-08-22T13:23:22.371Z,3.67
2022-08-22T13:26:09.181Z,3.35
2022-08-22T13:29:00.300Z,4.43
2022-08-22T13:31:40.981Z,4.53
2022-08-22T13:34:39.610Z,3.90
2022-08-22T13:37:11.585Z,4.68
2022-08-22T13:39:44.032Z,3.70
2022-08-22T13:42:30.175Z,3.15
2022-08-22T13:45:02.976Z,3.88
2022-08-22T13:47:34.838Z,2.00
2022-08-22T13:50:14.693Z,3.45
2022-08-22T13:52:52.270Z,4.15
2022-08-22T13:55:34.229Z,3.15
2022-08-22T13:58:25.220Z,2.88
2022-08-22T14:01:01.152Z,2.17
2022-08-22T14:03:48.702Z,4.45
2022-08-22T14:06:37.531Z,2.88
2022-08-22T14:09:32.687Z,4.97
2022-08-22T14:12:51.324Z,6.85
2022-08-22T14:15:44.472Z,4.20
2022-08-22T14:18:45.706Z,5.05
2022-08-22T14:21:40.333Z,3.50
2022-08-22T14:24:33.175Z,3.03
2022-08-22T14:27:15.466Z,3.53
2022-08-22T14:29:55.194Z,4.10
2022-08-22T14:32:22.769Z,3.65
2022-08-22T14:35:06.103Z,5.00
2022-08-22T14:37:42.778Z,4.55
2022-08-22T14:40:21.801Z,4.82
2022-08-22T14:43:00.497Z,3.05
2022-08-22T14:45:33.055Z,3.92
2022-08-22T14:48:29.730Z,3.28
2022-08-22T14:51:04.337Z,3.58
2022-08-22T14:53:38.152Z,4.18
2022-08-22T14:56:28.031Z,4.05
2022-08-22T14:59:03.086Z,4.25
2022-08-22T15:02:28.528Z,5.30
2022-08-22T15:05:24.879Z,3.85
2022-08-22T15:18:51.660Z,4.60
2022-08-22T15:21:52.667Z,9.48
2022-08-22T15:25:53.369Z,2.78
2022-08-22T15:28:20.948Z,4.57
2022-08-22T15:37:17.023Z,5.78
2022-08-22T15:40:57.566Z,4.88
2022-08-22T16:58:07.107Z,3.45
2022-08-22T17:13:13.604Z,3.67
2022-08-22T17:24:55.033Z,5.70
2022-08-22T17:46:06.082Z,4.17
2022-08-22T17:49:20.286Z,4.07
2022-08-22T17:53:35.781Z,5.13
2022-08-22T18:20:58.897Z,5.43
2022-08-22T18:23:42.948Z,4.68
2022-08-22T18:26:39.242Z,4.93
2022-08-22T18:29:32.096Z,6.30
2022-08-22T18:32:25.521Z,6.40
2022-08-22T18:35:32.542Z,7.53
2022-08-22T18:38:19.755Z,5.55
2022-08-22T18:40:59.227Z,5.88
2022-08-22T18:43:45.902Z,6.57
2022-08-22T18:46:39.981Z,4.60
2022-08-22T18:49:36.225Z,5.85
2022-08-22T18:52:07.215Z,6.57
2022-08-22T18:54:55.365Z,6.88
2022-08-22T18:57:47.144Z,5.68
2022-08-22T19:00:21.331Z,6.28
2022-08-22T19:03:24.495Z,7.65
2022-08-22T19:06:12.623Z,5.43
2022-08-22T19:09:17.003Z,5.55
2022-08-22T19:12:06.867Z,6.38
2022-08-22T19:14:55.136Z,5.40
2022-08-22T19:17:55.838Z,10.43
2022-08-22T19:20:48.915Z,5.13
2022-08-22T19:23:37.838Z,5.60
2022-08-22T19:26:26.866Z,6.45
2022-08-22T19:29:02.423Z,9.02
2022-08-22T19:31:36.088Z,5.70
2022-08-22T19:34:31.079Z,7.60
2022-08-22T19:37:30.972Z,7.82
2022-08-22T19:40:11.045Z,6.60
2022-08-22T19:42:41.765Z,8.18
2022-08-22T19:45:25.995Z,6.63
2022-08-22T19:48:13.910Z,7.43
2022-08-22T19:50:42.647Z,8.05
2022-08-22T19:53:38.232Z,6.90
2022-08-22T19:56:19.160Z,6.35
2022-08-22T19:59:27.194Z,6.47
2022-08-22T20:02:26.704Z,10.05
2022-08-22T20:05:09.109Z,5.60
2022-08-22T20:07:55.101Z,10.48
2022-08-22T20:10:34.940Z,9.13
2022-08-22T20:16:00.523Z,8.65
2022-08-22T20:19:08.794Z,6.85
2022-08-22T20:22:00.531Z,8.43
2022-08-22T20:24:57.454Z,6.40
2022-08-22T20:27:27.539Z,4.78
2022-08-22T20:30:31.048Z,5.35
2022-08-22T20:33:21.774Z,5.40
2022-08-22T20:36:27.262Z,10.50
2022-08-22T20:39:06.753Z,5.68
2022-08-22T20:41:38.076Z,5.13
2022-08-22T20:44:22.265Z,5.50
2022-08-22T20:46:53.290Z,6.18
2022-08-22T20:49:26.690Z,8.07
2022-08-22T20:51:59.927Z,6.47
2022-08-22T20:54:31.749Z,12.45
2022-08-22T20:57:12.237Z,5.80
2022-08-22T21:00:00.226Z,8.38
2022-08-22T21:02:50.569Z,8.43
2022-08-22T21:05:24.642Z,6.72
2022-08-22T21:08:18.877Z,8.25
2022-08-22T21:11:24.616Z,7.57
2022-08-22T21:14:16.742Z,7.88
2022-08-22T21:16:50.936Z,11.15
2022-08-22T21:19:37.410Z,7.45
2022-08-22T21:22:15.658Z,8.60
2022-08-22T21:25:01.584Z,11.48
2022-08-22T21:27:33.469Z,6.80
2022-08-22T21:30:15.807Z,8.05
2022-08-22T21:32:58.512Z,7.50
2022-08-22T21:35:33.847Z,9.52
2022-08-22T21:38:02.159Z,7.22
2022-08-22T21:40:35.651Z,6.22
2022-08-22T21:43:12.206Z,6.88
2022-08-22T21:45:39.161Z,8.50
2022-08-22T21:48:35.994Z,5.93
2022-08-22T21:51:24.925Z,7.40
2022-08-22T21:54:16.094Z,6.70
2022-08-22T21:56:38.692Z,5.88
2022-08-22T21:59:50.897Z,7.00
2022-08-22T22:02:37.943Z,8.02
2022-08-22T22:05:17.862Z,8.25
2022-08-22T22:07:46.835Z,6.20
2022-08-22T22:10:17.137Z,5.20
2022-08-22T22:12:46.964Z,10.07
2022-08-22T22:17:43.526Z,5.53
2022-08-22T22:20:11.202Z,6.00
2022-08-22T22:22:45.930Z,6.55
2022-08-22T22:25:39.624Z,5.65
2022-08-22T22:28:03.351Z,6.95
2022-08-22T22:30:30.286Z,5.97
2022-08-22T22:32:57.709Z,5.10
2022-08-22T22:35:24.848Z,8.60
2022-08-22T22:37:51.643Z,5.93
2022-08-22T22:40:18.881Z,6.68
2022-08-22T22:42:45.595Z,4.88
2022-08-22T22:45:12.368Z,5.32
2022-08-22T22:47:39.327Z,5.47
2022-08-22T22:50:07.135Z,5.85
2022-08-22T22:52:34.356Z,4.88
2022-08-22T22:55:08.592Z,6.57
2022-08-22T22:57:42.431Z,5.18
2022-08-22T23:03:32.975Z,5.57
2022-08-22T23:05:59.729Z,8.10
2022-08-22T23:08:26.515Z,5.32
2022-08-22T23:10:53.353Z,5.50
2022-08-22T23:13:21.593Z,6.20
2022-08-22T23:15:48.335Z,5.88
2022-08-22T23:18:15.066Z,5.72
2022-08-22T23:20:41.782Z,6.07
2022-08-22T23:23:08.461Z,7.22
2022-08-22T23:25:35.386Z,6.10
2022-08-22T23:28:02.221Z,6.50
2022-08-22T23:30:30.418Z,7.18
2022-08-22T23:32:57.193Z,5.30
2022-08-22T23:35:23.933Z,8.18
2022-08-22T23:37:50.648Z,11.27
2022-08-22T23:40:17.451Z,6.78
2022-08-22T23:42:44.384Z,7.07
2022-08-22T23:45:11.416Z,9.35
2022-08-22T23:47:38.153Z,7.55
2022-08-22T23:50:06.351Z,8.68
2022-08-22T23:52:33.438Z,8.40
2022-08-22T23:55:00.202Z,6.93
2022-08-22T23:57:27.584Z,6.22
2022-08-22T23:59:58.015Z,7.45
